KCIU/CIU METAR and TAF weather

Enter ICAO airport designator
Station Type Date Time Source
KCIU METAR 2021/09/28 03:56 UTC NOAA

KCIU 280356Z AUTO 35005KT 10SM CLR 09/09 A2997 RMK AO2 SLP150 T00940089


Station Type Date Time Source
KCIU Decoded METAR 2021/09/28 03:56 UTC NOAA

Sault Ste Marie, Chippewa County International Airport, MI, United States (KCIU) 46-15N 084-28W
Sep 27, 2021 - 11:56 PM EDT / 2021.09.28 0356 UTC
Wind: from the N (350 degrees) at 6 MPH (5 KT):0
Visibility: 10 mile(s):0
Sky conditions: clear
Temperature: 48.9 F (9.4 C)
Dew Point: 48.0 F (8.9 C)
Relative Humidity: 96%
Pressure (altimeter): 29.97 in. Hg (1014 hPa)
ob: KCIU 280356Z AUTO 35005KT 10SM CLR 09/09 A2997 RMK AO2 SLP150 T00940089
cycle: 4

Station Type Date Time Source
KCIU TAF UTC NOAA

Error!

Example: see airport list